createdAt,value
2018-05-27T00:00:57.756Z,16.80
2018-05-27T00:02:32.845Z,16.79
2018-05-27T00:04:08.698Z,16.76
2018-05-27T00:05:44.595Z,16.76
2018-05-27T00:07:19.670Z,16.74
2018-05-27T00:08:55.507Z,16.77
2018-05-27T00:10:30.630Z,16.76
2018-05-27T00:12:05.712Z,16.71
2018-05-27T00:13:40.781Z,16.66
2018-05-27T00:15:15.901Z,16.68
2018-05-27T00:16:50.966Z,16.63
2018-05-27T00:18:26.828Z,16.57
2018-05-27T00:20:01.922Z,16.55
2018-05-27T00:21:37.033Z,16.63
2018-05-27T00:23:12.114Z,16.61
2018-05-27T00:24:47.177Z,16.58
2018-05-27T00:26:22.313Z,16.54
2018-05-27T00:27:57.386Z,16.51
2018-05-27T00:29:33.234Z,16.44
2018-05-27T00:31:09.063Z,16.48
2018-05-27T00:32:44.164Z,16.52
2018-05-27T00:34:19.245Z,16.54
2018-05-27T00:35:54.337Z,16.52
2018-05-27T00:37:29.428Z,16.43
2018-05-27T00:39:07.147Z,16.38
2018-05-27T00:40:42.233Z,16.42
2018-05-27T00:42:17.326Z,16.39
2018-05-27T00:43:52.440Z,16.42
2018-05-27T00:45:27.503Z,16.47
2018-05-27T00:47:02.633Z,16.58
2018-05-27T00:48:38.519Z,16.66
2018-05-27T00:50:13.593Z,16.63
2018-05-27T00:51:48.670Z,16.56
2018-05-27T00:53:41.396Z,16.54
2018-05-27T00:55:16.473Z,16.52
2018-05-27T00:56:51.569Z,16.51
2018-05-27T00:58:26.636Z,16.54
2018-05-27T01:00:01.733Z,16.52
2018-05-27T01:01:36.813Z,16.50
2018-05-27T01:03:11.900Z,16.51
2018-05-27T01:04:47.726Z,16.44
2018-05-27T01:06:22.856Z,16.42
2018-05-27T01:07:57.964Z,16.46
2018-05-27T01:09:33.090Z,16.52
2018-05-27T01:11:08.933Z,16.44
2018-05-27T01:12:44.814Z,16.45
2018-05-27T01:14:19.941Z,16.43
2018-05-27T01:15:55.019Z,16.37
2018-05-27T01:17:30.098Z,16.34
2018-05-27T01:19:05.212Z,16.38
2018-05-27T01:20:40.300Z,16.38
2018-05-27T01:22:15.418Z,16.35
2018-05-27T01:23:50.502Z,16.39
2018-05-27T01:25:25.587Z,16.35
2018-05-27T01:27:00.665Z,16.33
2018-05-27T01:28:35.773Z,16.38
2018-05-27T01:30:10.866Z,16.46
2018-05-27T01:31:45.934Z,16.46
2018-05-27T01:33:21.016Z,16.46
2018-05-27T01:34:56.131Z,16.39
2018-05-27T01:36:31.211Z,16.39
2018-05-27T01:38:07.045Z,16.38
2018-05-27T01:39:42.266Z,16.27
2018-05-27T01:41:17.387Z,16.21
2018-05-27T01:42:52.466Z,16.15
2018-05-27T01:44:27.530Z,16.10
2018-05-27T01:46:02.651Z,16.16
2018-05-27T01:47:37.736Z,16.19
2018-05-27T01:49:13.601Z,16.15
2018-05-27T01:50:48.699Z,16.10
2018-05-27T01:52:23.779Z,16.08
2018-05-27T01:53:58.894Z,16.07
2018-05-27T01:55:33.977Z,16.05
2018-05-27T01:57:09.042Z,16.09
2018-05-27T01:58:44.577Z,16.11
2018-05-27T02:00:20.461Z,16.15
2018-05-27T02:01:55.562Z,16.11
2018-05-27T02:03:30.650Z,16.01
2018-05-27T02:05:05.745Z,15.97
2018-05-27T02:06:41.623Z,15.95
2018-05-27T02:08:16.695Z,15.98
2018-05-27T02:09:51.762Z,16.01
2018-05-27T02:11:26.892Z,16.02
2018-05-27T02:13:02.003Z,16.10
2018-05-27T02:14:37.112Z,16.26
2018-05-27T02:16:12.206Z,16.32
2018-05-27T02:17:47.290Z,16.34
2018-05-27T02:19:22.386Z,16.41
2018-05-27T02:20:57.576Z,16.51
2018-05-27T02:22:32.645Z,16.56
2018-05-27T02:24:08.490Z,16.51
2018-05-27T02:25:43.623Z,16.47
2018-05-27T02:27:19.510Z,16.45
2018-05-27T02:28:54.642Z,16.38
2018-05-27T02:30:29.736Z,16.25
2018-05-27T02:32:04.811Z,16.16
2018-05-27T02:33:39.905Z,16.18
2018-05-27T02:35:15.005Z,16.32
2018-05-27T02:36:50.851Z,16.31
2018-05-27T02:38:26.706Z,16.28
2018-05-27T02:40:02.560Z,16.30
2018-05-27T02:41:38.448Z,16.22
2018-05-27T02:43:13.538Z,16.19
2018-05-27T02:44:48.631Z,16.13
2018-05-27T02:46:23.765Z,16.26
2018-05-27T02:47:58.851Z,16.40
2018-05-27T02:49:33.910Z,16.54
2018-05-27T02:51:09.007Z,16.58
2018-05-27T02:52:44.121Z,16.52
2018-05-27T02:54:19.232Z,16.46
2018-05-27T02:55:55.083Z,16.40
2018-05-27T02:57:30.977Z,16.33
2018-05-27T02:59:06.064Z,16.36
2018-05-27T03:00:41.172Z,16.36
2018-05-27T03:02:16.263Z,16.29
2018-05-27T03:03:51.377Z,16.19
2018-05-27T03:05:26.449Z,16.19
2018-05-27T03:07:01.551Z,16.18
2018-05-27T03:08:36.651Z,16.15
2018-05-27T03:10:11.737Z,16.05
2018-05-27T03:11:46.836Z,16.09
2018-05-27T03:13:21.959Z,15.98
2018-05-27T03:14:57.062Z,16.00
2018-05-27T03:16:32.149Z,16.04
2018-05-27T03:18:07.215Z,16.10
2018-05-27T03:19:42.327Z,16.08
2018-05-27T03:21:18.176Z,15.87
2018-05-27T03:22:53.245Z,15.90
2018-05-27T03:24:28.355Z,15.90
2018-05-27T03:26:03.429Z,15.94
2018-05-27T03:27:38.515Z,15.92
2018-05-27T03:29:13.612Z,15.98
2018-05-27T03:30:48.689Z,16.01
2018-05-27T03:32:23.761Z,16.06
2018-05-27T03:33:58.862Z,16.07
2018-05-27T03:35:33.972Z,16.08
2018-05-27T03:37:09.023Z,16.12
2018-05-27T03:38:44.125Z,16.07
2018-05-27T03:40:19.208Z,16.06
2018-05-27T03:41:54.306Z,16.19
2018-05-27T03:43:29.379Z,16.33
2018-05-27T03:45:05.218Z,16.46
2018-05-27T03:46:40.329Z,16.45
2018-05-27T03:48:15.507Z,16.56
2018-05-27T03:49:50.590Z,16.67
2018-05-27T03:51:25.686Z,16.80
2018-05-27T03:53:00.750Z,16.92
2018-05-27T03:54:35.877Z,17.09
2018-05-27T03:56:10.933Z,17.19
2018-05-27T03:57:46.015Z,17.34
2018-05-27T03:59:21.099Z,17.35
2018-05-27T04:00:56.968Z,17.33
2018-05-27T04:02:32.031Z,17.42
2018-05-27T04:04:24.749Z,17.56
2018-05-27T04:06:17.558Z,17.67
2018-05-27T04:08:10.398Z,17.66
2018-05-27T04:09:45.470Z,17.74
2018-05-27T04:11:20.549Z,18.30
2018-05-27T04:12:56.466Z,19.28
2018-05-27T04:14:31.628Z,19.76
2018-05-27T04:16:06.744Z,20.12
2018-05-27T04:17:41.868Z,20.74
2018-05-27T04:19:16.933Z,21.27
2018-05-27T04:20:52.013Z,21.75
2018-05-27T04:22:27.063Z,21.94
2018-05-27T04:24:02.150Z,21.87
2018-05-27T04:25:37.283Z,21.84
2018-05-27T04:27:12.340Z,21.36
2018-05-27T04:28:47.450Z,20.85
2018-05-27T04:30:22.528Z,20.19
2018-05-27T04:31:58.375Z,19.88
2018-05-27T04:33:34.232Z,19.70
2018-05-27T04:35:10.109Z,19.51
2018-05-27T04:36:45.211Z,19.38
2018-05-27T04:38:20.298Z,19.08
2018-05-27T04:39:55.410Z,19.04
2018-05-27T04:41:30.484Z,19.06
2018-05-27T04:43:05.569Z,18.99
2018-05-27T04:44:40.671Z,18.87
2018-05-27T04:46:15.784Z,18.79
2018-05-27T04:47:50.886Z,18.60
2018-05-27T04:49:25.963Z,18.52
2018-05-27T04:51:01.068Z,18.44
2018-05-27T04:52:36.187Z,18.44
2018-05-27T04:54:11.268Z,18.41
2018-05-27T04:55:46.350Z,18.31
2018-05-27T04:57:21.437Z,18.25
2018-05-27T04:58:56.556Z,18.22
2018-05-27T05:00:31.655Z,18.20
2018-05-27T05:02:06.731Z,18.30
2018-05-27T05:03:41.851Z,18.19
2018-05-27T05:05:16.920Z,18.23
2018-05-27T05:06:52.022Z,18.23
2018-05-27T05:08:27.129Z,18.32
2018-05-27T05:10:02.211Z,18.24
2018-05-27T05:11:37.295Z,18.13
2018-05-27T05:13:13.168Z,18.01
2018-05-27T05:14:48.272Z,17.94
2018-05-27T05:16:23.399Z,18.00
2018-05-27T05:17:59.331Z,17.91
2018-05-27T05:19:34.416Z,17.80
2018-05-27T05:21:09.487Z,17.75
2018-05-27T05:22:44.578Z,17.75
2018-05-27T05:24:20.795Z,17.80
2018-05-27T05:25:55.859Z,17.87
2018-05-27T05:27:31.705Z,17.97
2018-05-27T05:29:07.594Z,18.05
2018-05-27T05:30:42.664Z,18.10
2018-05-27T05:32:17.748Z,18.25
2018-05-27T05:33:52.845Z,18.22
2018-05-27T05:35:28.158Z,18.18
2018-05-27T05:37:03.258Z,18.09
2018-05-27T05:38:38.362Z,18.07
2018-05-27T05:40:13.482Z,18.08
2018-05-27T05:41:48.626Z,17.99
2018-05-27T05:43:23.693Z,17.96
2018-05-27T05:44:59.605Z,18.01
2018-05-27T05:46:34.677Z,18.06
2018-05-27T05:48:09.775Z,18.07
2018-05-27T05:49:44.882Z,18.03
2018-05-27T05:51:19.992Z,18.10
2018-05-27T05:52:55.089Z,18.06
2018-05-27T05:54:30.198Z,17.74
2018-05-27T05:56:05.329Z,17.72
2018-05-27T05:57:40.478Z,17.75
2018-05-27T05:59:15.694Z,17.76
2018-05-27T06:00:52.001Z,17.81
2018-05-27T06:02:27.885Z,17.93
2018-05-27T06:04:02.987Z,17.95
2018-05-27T06:05:38.114Z,17.86
2018-05-27T06:07:13.262Z,17.80
2018-05-27T06:08:48.362Z,17.94
2018-05-27T06:10:23.483Z,18.01
2018-05-27T06:11:59.365Z,18.09
2018-05-27T06:13:35.044Z,18.09
2018-05-27T06:15:10.093Z,17.82
2018-05-27T06:16:45.951Z,17.84
2018-05-27T06:18:21.088Z,17.87
2018-05-27T06:19:56.184Z,17.92
2018-05-27T06:21:31.272Z,17.98
2018-05-27T06:23:06.413Z,18.04
2018-05-27T06:24:41.486Z,18.00
2018-05-27T06:26:16.788Z,18.12
2018-05-27T06:27:51.903Z,18.15
2018-05-27T06:29:26.994Z,18.09
2018-05-27T06:31:02.863Z,17.86
2018-05-27T06:32:38.015Z,17.83
2018-05-27T06:34:13.089Z,17.90
2018-05-27T06:35:48.948Z,17.85
2018-05-27T06:37:24.862Z,17.81
2018-05-27T06:39:00.003Z,17.72
2018-05-27T06:40:35.087Z,17.77
2018-05-27T06:42:10.195Z,17.73
2018-05-27T06:43:45.430Z,17.74
2018-05-27T06:45:20.558Z,17.73
2018-05-27T06:46:55.855Z,17.84
2018-05-27T06:48:30.940Z,17.95
2018-05-27T06:50:06.087Z,18.08
2018-05-27T06:51:41.275Z,18.20
2018-05-27T06:53:16.667Z,18.33
2018-05-27T06:54:51.801Z,18.47
2018-05-27T06:56:28.124Z,18.59
2018-05-27T07:02:40.017Z,19.02
2018-05-27T07:04:15.149Z,18.91
2018-05-27T07:05:51.202Z,18.67
2018-05-27T07:07:26.333Z,18.72
2018-05-27T07:09:02.565Z,18.82
2018-05-27T07:10:40.195Z,19.13
2018-05-27T07:12:20.680Z,19.09
2018-05-27T07:14:01.728Z,19.20
2018-05-27T07:15:41.974Z,19.38
2018-05-27T07:17:19.631Z,19.50
2018-05-27T07:19:12.798Z,19.37
2018-05-27T07:20:47.908Z,19.25
2018-05-27T07:22:23.105Z,19.37
2018-05-27T07:23:58.182Z,19.47
2018-05-27T07:25:33.305Z,19.52
2018-05-27T07:27:09.232Z,19.58
2018-05-27T07:28:44.483Z,19.76
2018-05-27T07:30:19.617Z,19.88
2018-05-27T07:31:57.329Z,20.01
2018-05-27T07:33:32.491Z,20.11
2018-05-27T07:35:07.700Z,19.97
2018-05-27T07:36:44.605Z,19.85
2018-05-27T07:38:20.527Z,19.92
2018-05-27T07:39:55.850Z,20.08
2018-05-27T07:46:09.784Z,20.51
2018-05-27T07:47:45.571Z,20.63
2018-05-27T07:49:20.678Z,20.90
2018-05-27T07:50:56.615Z,21.05
2018-05-27T07:52:31.799Z,21.07
2018-05-27T07:54:07.657Z,21.17
2018-05-27T07:55:43.590Z,20.91
2018-05-27T07:57:42.272Z,20.91
2018-05-27T07:59:17.463Z,20.76
2018-05-27T08:00:52.580Z,20.73
2018-05-27T08:02:27.684Z,20.81
2018-05-27T08:04:03.694Z,20.78
2018-05-27T08:05:38.788Z,20.89
2018-05-27T08:07:14.389Z,20.98
2018-05-27T08:08:49.589Z,20.99
2018-05-27T08:10:26.193Z,20.81
2018-05-27T08:12:01.558Z,20.90
2018-05-27T08:13:36.685Z,21.04
2018-05-27T08:15:11.976Z,21.24
2018-05-27T08:16:47.937Z,21.19
2018-05-27T08:18:23.081Z,21.42
2018-05-27T08:19:58.370Z,21.38
2018-05-27T08:21:33.540Z,21.40
2018-05-27T08:23:09.232Z,21.28
2018-05-27T08:24:44.417Z,21.74
2018-05-27T08:26:19.775Z,21.88
2018-05-27T08:27:54.968Z,21.84
2018-05-27T08:29:30.110Z,21.76
2018-05-27T08:31:05.651Z,21.93
2018-05-27T08:32:40.842Z,21.86
2018-05-27T08:34:16.074Z,21.92
2018-05-27T08:35:51.866Z,22.15
2018-05-27T08:37:27.766Z,22.26
2018-05-27T08:39:06.560Z,22.45
2018-05-27T08:40:41.752Z,22.51
2018-05-27T08:42:16.901Z,22.78
2018-05-27T08:43:52.115Z,22.94
2018-05-27T08:45:27.203Z,23.11
2018-05-27T08:47:02.392Z,23.16
2018-05-27T08:48:39.616Z,23.39
2018-05-27T08:50:16.132Z,23.82
2018-05-27T08:51:52.923Z,23.98
2018-05-27T08:53:29.645Z,24.09
2018-05-27T08:55:05.499Z,23.52
2018-05-27T08:56:41.421Z,23.19
2018-05-27T08:58:16.646Z,23.21
2018-05-27T08:59:51.953Z,23.56
2018-05-27T09:01:27.214Z,23.74
2018-05-27T09:03:02.657Z,23.79
2018-05-27T09:04:37.828Z,23.58
2018-05-27T09:06:13.003Z,23.57
2018-05-27T09:07:48.177Z,23.54
2018-05-27T09:09:24.532Z,23.54
2018-05-27T09:11:00.585Z,23.70
2018-05-27T09:12:35.769Z,23.83
2018-05-27T09:14:11.616Z,23.70
2018-05-27T09:15:47.987Z,23.58
2018-05-27T09:17:23.111Z,23.35
2018-05-27T09:18:58.278Z,23.43
2018-05-27T09:20:34.561Z,23.69
2018-05-27T09:22:09.813Z,23.77
2018-05-27T09:23:47.420Z,23.62
2018-05-27T09:25:23.476Z,23.91
2018-05-27T09:26:59.596Z,24.10
2018-05-27T09:28:35.111Z,24.32
2018-05-27T09:30:13.753Z,24.25
2018-05-27T09:31:49.907Z,24.17
2018-05-27T09:33:25.986Z,24.15
2018-05-27T09:35:02.274Z,23.98
2018-05-27T09:36:37.735Z,24.04
2018-05-27T09:38:13.129Z,24.09
2018-05-27T09:39:48.349Z,23.82
2018-05-27T09:41:24.078Z,23.92
2018-05-27T09:43:00.038Z,24.11
2018-05-27T09:44:35.259Z,24.13
2018-05-27T09:46:11.205Z,23.87
2018-05-27T09:47:46.377Z,24.01
2018-05-27T09:49:21.602Z,24.02
2018-05-27T09:50:56.811Z,23.97
2018-05-27T09:52:32.084Z,24.04
2018-05-27T09:54:08.057Z,24.30
2018-05-27T09:55:43.935Z,24.47
2018-05-27T09:57:19.719Z,24.25
2018-05-27T09:58:54.970Z,23.91
2018-05-27T10:00:30.245Z,23.82
2018-05-27T10:02:06.459Z,23.83
2018-05-27T10:03:46.944Z,23.81
2018-05-27T10:05:22.837Z,23.74
2018-05-27T10:06:58.011Z,23.82
2018-05-27T10:08:34.045Z,23.76
2018-05-27T10:10:10.352Z,23.97
2018-05-27T10:11:45.598Z,23.95
2018-05-27T10:13:21.463Z,24.00
2018-05-27T10:14:57.330Z,24.14
2018-05-27T10:16:33.181Z,24.08
2018-05-27T10:18:18.791Z,24.13
2018-05-27T10:19:54.740Z,24.18
2018-05-27T10:21:30.620Z,24.27
2018-05-27T10:23:07.775Z,24.32
2018-05-27T10:24:42.965Z,24.25
2018-05-27T10:26:18.157Z,24.39
2018-05-27T10:27:54.977Z,24.44
2018-05-27T10:29:30.921Z,24.59
2018-05-27T10:31:07.591Z,24.56
2018-05-27T10:32:43.555Z,24.56
2018-05-27T10:34:18.698Z,24.56
2018-05-27T10:35:54.679Z,24.50
2018-05-27T10:37:31.269Z,24.55
2018-05-27T10:39:06.518Z,24.56
2018-05-27T10:40:41.834Z,24.61
2018-05-27T10:42:17.100Z,24.77
2018-05-27T10:43:53.594Z,24.77
2018-05-27T10:45:29.632Z,24.73
2018-05-27T10:47:05.921Z,24.83
2018-05-27T10:48:41.139Z,24.93
2018-05-27T10:50:16.930Z,24.88
2018-05-27T10:51:52.154Z,24.72
2018-05-27T10:53:27.524Z,24.66
2018-05-27T10:55:03.579Z,24.85
2018-05-27T10:56:38.860Z,24.93
2018-05-27T10:58:14.520Z,25.00
2018-05-27T10:59:49.606Z,24.86
2018-05-27T11:01:24.706Z,24.86
2018-05-27T11:02:59.776Z,24.91
2018-05-27T11:04:34.888Z,25.01
2018-05-27T11:06:09.968Z,25.17
2018-05-27T11:07:45.046Z,25.24
2018-05-27T11:09:20.119Z,25.28
2018-05-27T11:10:55.214Z,25.27
2018-05-27T11:12:31.124Z,25.36
2018-05-27T11:14:06.199Z,25.44
2018-05-27T11:15:41.327Z,25.38
2018-05-27T11:17:16.419Z,25.41
2018-05-27T11:18:51.511Z,25.50
2018-05-27T11:20:26.612Z,25.62
2018-05-27T11:22:01.681Z,25.72
2018-05-27T11:23:36.755Z,25.66
2018-05-27T11:25:11.855Z,25.72
2018-05-27T11:26:46.930Z,25.80
2018-05-27T11:28:22.052Z,25.99
2018-05-27T11:29:57.182Z,26.10
2018-05-27T11:31:33.003Z,26.03
2018-05-27T11:33:08.886Z,26.08
2018-05-27T11:34:43.957Z,26.12
2018-05-27T11:36:19.348Z,26.13
2018-05-27T11:38:17.853Z,26.18
2018-05-27T11:39:52.970Z,26.18
2018-05-27T11:43:34.703Z,26.25
2018-05-27T11:45:09.789Z,26.19
2018-05-27T11:46:44.848Z,26.23
2018-05-27T11:48:19.932Z,26.43
2018-05-27T11:49:55.046Z,26.57
2018-05-27T11:51:30.111Z,26.72
2018-05-27T11:53:05.182Z,27.00
2018-05-27T11:54:40.278Z,26.96
2018-05-27T11:56:15.354Z,27.02
2018-05-27T11:57:50.440Z,27.14
2018-05-27T11:59:25.504Z,27.22
2018-05-27T12:01:00.625Z,27.33
2018-05-27T12:02:36.461Z,27.36
2018-05-27T12:04:11.524Z,27.58
2018-05-27T12:05:46.612Z,27.61
2018-05-27T12:07:21.729Z,27.60
2018-05-27T12:08:56.799Z,27.87
2018-05-27T12:10:32.692Z,28.13
2018-05-27T12:12:07.759Z,27.85
2018-05-27T12:13:42.828Z,27.96
2018-05-27T12:15:17.922Z,27.70
2018-05-27T12:16:53.016Z,27.50
2018-05-27T12:18:28.113Z,27.70
2018-05-27T12:20:03.221Z,27.74
2018-05-27T12:21:38.310Z,27.68
2018-05-27T12:23:13.417Z,27.57
2018-05-27T12:24:48.506Z,27.55
2018-05-27T12:26:24.357Z,27.34
2018-05-27T12:27:59.430Z,27.36
2018-05-27T12:29:34.519Z,27.32
2018-05-27T12:31:10.380Z,27.03
2018-05-27T12:32:45.460Z,26.97
2018-05-27T12:34:20.527Z,26.81
2018-05-27T12:35:56.385Z,26.72
2018-05-27T12:37:31.463Z,26.79
2018-05-27T12:39:06.530Z,26.57
2018-05-27T12:40:42.539Z,26.45
2018-05-27T12:42:17.828Z,26.46
2018-05-27T12:43:53.111Z,26.29
2018-05-27T12:45:28.207Z,26.23
2018-05-27T12:47:03.335Z,26.09
2018-05-27T12:48:38.415Z,25.98
2018-05-27T12:50:14.257Z,25.96
2018-05-27T12:51:49.550Z,25.97
2018-05-27T12:53:24.879Z,25.92
2018-05-27T12:54:59.955Z,25.83
2018-05-27T12:56:35.844Z,25.73
2018-05-27T12:58:11.189Z,25.63
2018-05-27T12:59:46.399Z,25.64
2018-05-27T13:01:21.723Z,25.67
2018-05-27T13:02:57.167Z,25.64
2018-05-27T13:04:32.244Z,25.54
2018-05-27T13:06:07.383Z,25.46
2018-05-27T13:07:42.497Z,25.40
2018-05-27T13:09:17.628Z,25.43
2018-05-27T13:10:52.715Z,25.40
2018-05-27T13:12:28.583Z,25.34
2018-05-27T13:14:03.677Z,25.30
2018-05-27T13:15:42.295Z,25.21
2018-05-27T13:17:17.810Z,25.03
2018-05-27T13:18:53.616Z,25.09
2018-05-27T13:20:29.518Z,24.94
2018-05-27T13:22:04.748Z,24.86
2018-05-27T13:23:39.869Z,24.72
2018-05-27T13:25:15.717Z,24.61
2018-05-27T13:26:50.817Z,24.50
2018-05-27T13:28:25.920Z,24.43
2018-05-27T13:30:01.029Z,24.38
2018-05-27T13:31:36.053Z,24.43
2018-05-27T13:33:11.939Z,24.41
2018-05-27T13:34:47.024Z,24.36
2018-05-27T13:36:22.450Z,24.34
2018-05-27T13:37:58.395Z,24.24
2018-05-27T13:39:33.507Z,24.20
2018-05-27T13:41:08.611Z,24.30
2018-05-27T13:42:43.678Z,24.30
2018-05-27T13:44:18.921Z,24.36
2018-05-27T13:45:54.134Z,24.43
2018-05-27T13:47:29.232Z,24.46
2018-05-27T13:49:04.302Z,24.56
2018-05-27T13:50:39.357Z,24.74
2018-05-27T13:52:14.756Z,24.77
2018-05-27T13:53:49.826Z,24.80
2018-05-27T13:55:24.948Z,24.79
2018-05-27T13:56:59.975Z,24.87
2018-05-27T13:58:35.836Z,24.92
2018-05-27T14:00:11.007Z,24.92
2018-05-27T14:01:46.945Z,24.83
2018-05-27T14:03:22.343Z,24.82
2018-05-27T14:05:00.463Z,24.95
2018-05-27T14:06:35.612Z,24.94
2018-05-27T14:08:10.695Z,24.98
2018-05-27T14:09:45.817Z,25.21
2018-05-27T14:11:21.838Z,25.41
2018-05-27T14:12:57.326Z,25.56
2018-05-27T14:14:32.545Z,25.77
2018-05-27T14:16:08.132Z,25.97
2018-05-27T14:17:44.337Z,26.35
2018-05-27T14:19:19.934Z,26.76
2018-05-27T14:20:56.193Z,27.27
2018-05-27T14:22:33.249Z,27.68
2018-05-27T14:24:08.366Z,27.97
2018-05-27T14:25:43.497Z,28.25
2018-05-27T14:27:19.319Z,28.30
2018-05-27T14:28:54.521Z,28.28
2018-05-27T14:30:29.588Z,28.43
2018-05-27T14:32:04.661Z,28.50
2018-05-27T14:33:39.786Z,28.31
2018-05-27T14:35:14.855Z,28.18
2018-05-27T14:36:49.910Z,28.01
2018-05-27T14:38:25.138Z,28.04
2018-05-27T14:40:00.971Z,28.11
2018-05-27T14:41:36.032Z,28.12
2018-05-27T14:43:11.132Z,28.04
2018-05-27T14:44:47.295Z,27.51
2018-05-27T14:46:22.392Z,26.87
2018-05-27T14:47:57.455Z,26.45
2018-05-27T14:49:32.680Z,26.33
2018-05-27T14:51:07.765Z,26.29
2018-05-27T14:52:42.946Z,26.17
2018-05-27T14:54:18.150Z,26.45
2018-05-27T14:55:53.254Z,26.07
2018-05-27T14:57:28.438Z,26.18
2018-05-27T14:59:03.526Z,26.50
2018-05-27T15:00:38.665Z,26.59
2018-05-27T15:02:13.753Z,26.53
2018-05-27T15:03:49.640Z,26.33
2018-05-27T15:05:24.764Z,26.32
2018-05-27T15:06:59.861Z,26.49
2018-05-27T15:08:34.933Z,26.24
2018-05-27T15:10:10.014Z,26.01
2018-05-27T15:11:45.173Z,26.07
2018-05-27T15:13:20.263Z,26.16
2018-05-27T15:14:55.612Z,26.35
2018-05-27T15:16:30.677Z,26.34
2018-05-27T15:18:05.793Z,26.42
2018-05-27T15:19:40.873Z,26.58
2018-05-27T15:21:15.994Z,26.37
2018-05-27T15:22:51.859Z,26.14
2018-05-27T15:24:26.989Z,26.16
2018-05-27T15:26:02.158Z,26.04
2018-05-27T15:27:37.278Z,25.83
2018-05-27T15:29:12.476Z,25.75
2018-05-27T15:30:51.671Z,25.63
2018-05-27T15:32:26.881Z,25.61
2018-05-27T15:34:01.993Z,25.43
2018-05-27T15:35:37.129Z,25.34
2018-05-27T15:37:12.283Z,25.29
2018-05-27T15:38:47.384Z,25.31
2018-05-27T15:40:22.501Z,25.43
2018-05-27T15:41:57.667Z,25.61
2018-05-27T15:43:32.827Z,25.66
2018-05-27T15:45:08.755Z,25.71
2018-05-27T15:46:44.675Z,25.82
2018-05-27T15:48:19.928Z,25.84
2018-05-27T15:49:55.139Z,25.83
2018-05-27T15:51:31.130Z,25.87
2018-05-27T15:53:07.192Z,25.99
2018-05-27T15:54:42.758Z,26.13
2018-05-27T15:56:18.045Z,26.19
2018-05-27T15:57:53.149Z,26.21
2018-05-27T15:59:28.234Z,26.20
2018-05-27T16:01:03.350Z,26.15
2018-05-27T16:02:38.495Z,26.26
2018-05-27T16:04:13.612Z,26.19
2018-05-27T16:05:49.681Z,26.23
2018-05-27T16:07:24.763Z,26.23
2018-05-27T16:08:59.877Z,26.48
2018-05-27T16:10:35.014Z,26.63
2018-05-27T16:12:10.320Z,26.79
2018-05-27T16:13:45.603Z,26.83
2018-05-27T16:15:20.676Z,26.83
2018-05-27T16:16:56.084Z,26.83
2018-05-27T16:18:31.213Z,26.80
2018-05-27T16:20:07.096Z,26.72
2018-05-27T16:21:42.271Z,26.76
2018-05-27T16:23:17.520Z,26.76
2018-05-27T16:24:52.724Z,26.65
2018-05-27T16:26:27.841Z,26.65
2018-05-27T16:28:03.062Z,26.71
2018-05-27T16:29:38.170Z,26.83
2018-05-27T16:31:13.360Z,26.69
2018-05-27T16:32:48.439Z,26.69
2018-05-27T16:34:23.570Z,26.54
2018-05-27T16:35:58.807Z,26.48
2018-05-27T16:37:33.865Z,26.44
2018-05-27T16:39:08.963Z,26.44
2018-05-27T16:40:44.077Z,26.39
2018-05-27T16:42:19.111Z,26.13
2018-05-27T16:43:54.222Z,26.10
2018-05-27T16:45:30.045Z,26.02
2018-05-27T16:47:05.130Z,25.93
2018-05-27T16:48:40.210Z,25.85
2018-05-27T16:50:16.049Z,25.67
2018-05-27T16:51:51.171Z,25.55
2018-05-27T16:53:26.260Z,25.51
2018-05-27T16:55:01.347Z,25.35
2018-05-27T16:56:37.218Z,25.11
2018-05-27T16:58:13.097Z,25.02
2018-05-27T16:59:48.190Z,24.87
2018-05-27T17:01:23.303Z,24.70
2018-05-27T17:02:59.219Z,24.68
2018-05-27T17:04:34.386Z,24.62
2018-05-27T17:06:10.365Z,24.51
2018-05-27T17:07:45.528Z,24.43
2018-05-27T17:09:20.654Z,24.38
2018-05-27T17:10:55.772Z,24.26
2018-05-27T17:12:30.898Z,24.23
2018-05-27T17:14:07.085Z,24.17
2018-05-27T17:15:42.240Z,24.05
2018-05-27T17:17:18.106Z,24.11
2018-05-27T17:18:53.223Z,24.03
2018-05-27T17:20:28.318Z,23.92
2018-05-27T17:22:03.481Z,23.92
2018-05-27T17:23:38.592Z,23.82
2018-05-27T17:25:13.712Z,23.83
2018-05-27T17:26:48.864Z,23.80
2018-05-27T17:28:24.753Z,23.71
2018-05-27T17:30:00.477Z,23.64
2018-05-27T17:31:35.984Z,23.60
2018-05-27T17:33:12.023Z,23.54
2018-05-27T17:34:47.122Z,23.62
2018-05-27T17:36:23.102Z,23.51
2018-05-27T17:37:59.177Z,23.38
2018-05-27T17:39:34.505Z,23.39
2018-05-27T17:41:09.671Z,23.45
2018-05-27T17:42:44.788Z,23.42
2018-05-27T17:44:19.920Z,23.29
2018-05-27T17:45:55.099Z,23.33
2018-05-27T17:47:30.255Z,23.35
2018-05-27T17:49:05.410Z,23.46
2018-05-27T17:50:40.564Z,23.38
2018-05-27T17:52:15.756Z,23.32
2018-05-27T17:53:51.131Z,23.25
2018-05-27T17:55:26.619Z,23.13
2018-05-27T17:57:01.723Z,23.05
2018-05-27T17:58:38.452Z,23.09
2018-05-27T18:00:14.223Z,23.17
2018-05-27T18:01:51.438Z,23.15
2018-05-27T18:03:27.659Z,23.22
2018-05-27T18:05:11.963Z,23.10
2018-05-27T18:06:49.003Z,23.02
2018-05-27T18:08:29.489Z,22.89
2018-05-27T18:10:16.069Z,22.80
2018-05-27T18:12:03.282Z,22.68
2018-05-27T18:13:42.864Z,22.60
2018-05-27T18:15:18.872Z,22.63
2018-05-27T18:17:02.935Z,22.64
2018-05-27T18:18:38.621Z,22.56
2018-05-27T18:20:15.053Z,22.49
2018-05-27T18:21:50.253Z,22.38
2018-05-27T18:23:25.499Z,22.28
2018-05-27T18:25:00.985Z,22.19
2018-05-27T18:26:36.275Z,22.15
2018-05-27T18:28:11.503Z,22.17
2018-05-27T18:29:46.752Z,22.13
2018-05-27T18:31:28.586Z,22.09
2018-05-27T18:33:24.435Z,22.05
2018-05-27T18:34:59.611Z,21.91
2018-05-27T18:36:35.647Z,21.87
2018-05-27T18:38:17.761Z,21.80
2018-05-27T18:39:58.963Z,21.77
2018-05-27T18:41:34.561Z,21.75
2018-05-27T18:43:17.775Z,21.74
2018-05-27T18:46:45.664Z,21.61
2018-05-27T18:48:21.203Z,21.53
2018-05-27T18:49:57.032Z,21.48
2018-05-27T18:51:32.195Z,21.54
2018-05-27T18:53:07.824Z,21.48
2018-05-27T18:54:44.630Z,21.39
2018-05-27T18:56:19.902Z,21.30
2018-05-27T18:57:55.801Z,21.26
2018-05-27T18:59:35.253Z,21.22
2018-05-27T19:01:10.491Z,21.25
2018-05-27T19:02:47.859Z,21.14
2018-05-27T19:04:23.538Z,21.12
2018-05-27T19:06:11.651Z,21.05
2018-05-27T19:07:48.032Z,20.99
2018-05-27T19:09:35.030Z,20.91
2018-05-27T19:11:10.687Z,20.88
2018-05-27T19:15:00.510Z,20.80
2018-05-27T19:16:38.135Z,20.85
2018-05-27T19:18:15.302Z,20.83
2018-05-27T19:19:50.841Z,20.74
2018-05-27T19:21:26.020Z,20.66
2018-05-27T19:23:01.227Z,20.74
2018-05-27T19:24:36.448Z,20.64
2018-05-27T19:26:11.748Z,20.62
2018-05-27T19:27:47.910Z,20.61
2018-05-27T19:29:23.111Z,20.67
2018-05-27T19:30:58.342Z,20.53
2018-05-27T19:32:33.481Z,20.55
2018-05-27T19:34:08.651Z,20.57
2018-05-27T19:35:44.031Z,20.56
2018-05-27T19:37:19.263Z,20.49
2018-05-27T19:38:54.513Z,20.50
2018-05-27T19:40:30.285Z,20.55
2018-05-27T19:42:06.328Z,20.54
2018-05-27T19:43:41.459Z,20.48
2018-05-27T19:45:16.819Z,20.48
2018-05-27T19:46:52.107Z,20.45
2018-05-27T19:48:27.302Z,20.45
2018-05-27T19:50:02.694Z,20.49
2018-05-27T19:51:38.094Z,20.49
2018-05-27T19:53:13.627Z,20.42
2018-05-27T19:54:49.199Z,20.35
2018-05-27T19:56:24.367Z,20.26
2018-05-27T19:57:59.516Z,20.23
2018-05-27T19:59:36.539Z,20.20
2018-05-27T20:01:11.673Z,20.21
2018-05-27T20:02:46.811Z,20.24
2018-05-27T20:04:22.698Z,20.26
2018-05-27T20:05:57.793Z,20.25
2018-05-27T20:07:33.081Z,20.19
2018-05-27T20:09:08.199Z,20.15
2018-05-27T20:10:43.278Z,20.14
2018-05-27T20:12:18.391Z,20.21
2018-05-27T20:13:53.518Z,20.22
2018-05-27T20:15:28.644Z,20.23
2018-05-27T20:17:03.748Z,20.27
2018-05-27T20:18:38.869Z,20.37
2018-05-27T20:20:13.960Z,20.27
2018-05-27T20:21:55.146Z,20.19
2018-05-27T20:23:31.089Z,20.11
2018-05-27T20:25:06.145Z,20.11
2018-05-27T20:26:41.977Z,20.18
2018-05-27T20:28:17.933Z,20.27
2018-05-27T20:29:53.782Z,20.31
2018-05-27T20:31:29.637Z,20.27
2018-05-27T20:33:05.477Z,20.12
2018-05-27T20:34:41.365Z,20.11
2018-05-27T20:36:17.189Z,20.11
2018-05-27T20:37:52.301Z,20.10
2018-05-27T20:39:27.383Z,20.22
2018-05-27T20:41:02.546Z,20.12
2018-05-27T20:42:37.626Z,20.10
2018-05-27T20:44:12.715Z,20.03
2018-05-27T20:45:48.582Z,20.06
2018-05-27T20:47:23.650Z,20.14
2018-05-27T20:48:58.718Z,20.14